Time;durP1;ratioP1;P1;durP2;ratioP2;P2;SDS_P1;SDS_P2;PMS_P1;PMS_P2;Temp;Humidity;BMP_temperature;BMP_pressure;BME280_temperature;BME280_humidity;BME280_pressure;Samples;Min_cycle;Max_cycle;Signal;HPM_P1;HPM_P2
2024/02/03 00:00:19;;;;;;;3.45;0.63;;;;;;;-2.23;62.12;97886.63;5008247;28;20940;-43
2024/02/03 00:05:37;;;;;;;3.17;0.60;;;;;;;-2.37;62.61;97896.16;5007953;28;20522;-41
2024/02/03 00:08:03;;;;;;;0.30;0.30;;;;;;;-2.58;62.32;97864.19;4991099;28;20050;-41
2024/02/03 00:10:29;;;;;;;3.33;0.80;;;;;;;-2.45;62.57;97875.03;5007761;28;20111;-43
2024/02/03 00:12:55;;;;;;;2.55;0.65;;;;;;;-2.60;62.65;97853.16;4994244;28;20502;-43
2024/02/03 00:15:21;;;;;;;0.28;0.20;;;;;;;-2.64;63.00;97862.53;4971467;28;20054;-42
2024/02/03 00:17:47;;;;;;;1.35;0.22;;;;;;;-2.61;63.20;97895.56;4987798;28;20038;-41
2024/02/03 00:20:14;;;;;;;3.10;0.75;;;;;;;-2.63;63.39;97888.81;4981740;28;20042;-42
2024/02/03 00:22:43;;;;;;;2.28;0.60;;;;;;;-2.68;63.21;97886.34;5003875;28;20069;-45
2024/02/03 00:25:09;;;;;;;1.73;0.75;;;;;;;-2.75;63.53;97881.31;4987822;28;20081;-44
2024/02/03 00:27:35;;;;;;;2.13;1.17;;;;;;;-2.77;63.67;97890.66;4999693;28;20050;-45
2024/02/03 00:30:01;;;;;;;3.28;0.98;;;;;;;-2.80;63.55;97885.59;4995243;28;20095;-44
2024/02/03 00:32:31;;;;;;;3.20;0.63;;;;;;;-2.81;64.11;97886.47;4995555;28;20590;-44
2024/02/03 00:34:57;;;;;;;2.45;0.55;;;;;;;-2.80;64.25;97885.59;5001034;28;20046;-42
2024/02/03 00:37:23;;;;;;;0.95;0.60;;;;;;;-2.84;64.27;97892.44;4996836;28;20034;-43
2024/02/03 00:39:49;;;;;;;1.67;0.55;;;;;;;-2.88;64.40;97889.94;4943677;28;20046;-44
2024/02/03 00:42:15;;;;;;;2.58;0.65;;;;;;;-3.30;64.14;97823.44;5008057;28;20050;-42
2024/02/03 00:44:42;;;;;;;2.60;0.60;;;;;;;-2.92;64.31;97873.84;5008157;28;20477;-43
2024/02/03 00:47:08;;;;;;;3.83;0.60;;;;;;;-2.85;64.57;97877.19;4992561;28;20045;-42
2024/02/03 00:49:34;;;;;;;2.17;0.20;;;;;;;-2.87;64.58;97881.44;4961467;28;20041;-42
2024/02/03 00:52:00;;;;;;;0.93;0.38;;;;;;;-2.97;64.84;97867.97;4990236;28;20041;-43
2024/02/03 00:54:26;;;;;;;1.45;0.43;;;;;;;-2.98;64.79;97876.44;4994946;28;20048;-43
2024/02/03 00:56:53;;;;;;;2.22;0.52;;;;;;;-3.00;65.00;97868.88;4989283;28;20038;-44
2024/02/03 00:59:18;;;;;;;4.85;0.77;;;;;;;-3.02;65.14;97865.47;5006456;28;20403;-43
2024/02/03 01:01:44;;;;;;;6.28;0.70;;;;;;;-3.05;65.15;97873.16;5006971;28;20052;-44
2024/02/03 01:04:10;;;;;;;2.30;0.40;;;;;;;-3.12;65.22;97851.19;4997906;28;20052;-44
2024/02/03 01:06:36;;;;;;;1.58;0.60;;;;;;;-3.12;65.36;97878.28;5006224;28;20425;-43
2024/02/03 01:09:02;;;;;;;1.15;0.45;;;;;;;-3.16;65.79;97881.72;5006666;28;20057;-43
2024/02/03 01:11:28;;;;;;;7.38;0.93;;;;;;;-3.18;66.21;97858.00;5005778;28;20166;-43
2024/02/03 01:13:54;;;;;;;1.25;0.40;;;;;;;-3.31;65.91;97844.59;5007433;28;20468;-43
2024/02/03 01:16:21;;;;;;;0.75;0.57;;;;;;;-3.21;66.36;97863.97;5006898;28;20040;-42
2024/02/03 01:18:47;;;;;;;6.53;1.95;;;;;;;-3.24;66.26;97860.59;5007053;28;20528;-42
2024/02/03 01:21:17;;;;;;;2.33;0.40;;;;;;;-3.25;66.35;97852.16;4958411;28;20042;-42
2024/02/03 01:23:44;;;;;;;6.43;1.98;;;;;;;-3.27;66.85;97848.78;4986669;28;20085;-43
2024/02/03 01:26:10;;;;;;;2.55;0.63;;;;;;;-3.54;66.68;97826.16;4989098;28;20096;-42
2024/02/03 01:28:36;;;;;;;2.67;0.80;;;;;;;-3.66;66.76;97829.63;5005960;28;20077;-43
2024/02/03 01:31:02;;;;;;;2.63;0.80;;;;;;;-3.65;67.34;97826.25;5005940;28;20045;-43
2024/02/03 01:33:28;;;;;;;3.17;0.57;;;;;;;-3.51;67.40;97859.97;5004842;28;20049;-42
2024/02/03 01:35:54;;;;;;;4.25;0.68;;;;;;;-3.55;67.53;97858.34;5006356;28;20127;-43
2024/02/03 01:38:20;;;;;;;7.60;2.05;;;;;;;-3.77;67.95;97810.28;4985233;28;20049;-42
2024/02/03 01:40:47;;;;;;;4.43;0.50;;;;;;;-3.52;68.01;97852.41;4986190;28;20038;-43
2024/02/03 01:43:13;;;;;;;1.02;0.57;;;;;;;-3.94;67.95;97770.66;4969803;28;20042;-44
2024/02/03 01:45:40;;;;;;;2.15;0.65;;;;;;;-3.56;67.77;97850.75;5000418;28;20688;-41
2024/02/03 01:48:07;;;;;;;3.85;2.35;;;;;;;-3.60;68.10;97834.66;5006391;28;20132;-43
2024/02/03 01:50:33;;;;;;;1.35;0.85;;;;;;;-3.92;68.49;97796.00;4988406;28;20100;-43
2024/02/03 01:53:00;;;;;;;0.85;0.55;;;;;;;-3.71;68.73;97841.53;5006332;28;20492;-43
2024/02/03 01:55:26;;;;;;;2.22;0.75;;;;;;;-3.97;68.83;97818.03;4972127;28;20046;-43
2024/02/03 01:57:53;;;;;;;1.85;0.98;;;;;;;-3.78;69.14;97846.69;4986723;28;20031;-41
2024/02/03 02:00:20;;;;;;;4.47;0.50;;;;;;;-3.78;69.49;97847.53;4997530;28;20077;-42
2024/02/03 02:02:46;;;;;;;2.80;0.52;;;;;;;-4.01;69.51;97806.22;4997038;28;20045;-43
2024/02/03 02:05:12;;;;;;;3.38;0.77;;;;;;;-3.85;69.68;97839.09;5003806;28;20058;-42
2024/02/03 02:07:42;;;;;;;7.30;0.90;;;;;;;-4.02;69.57;97799.47;5006587;28;20274;-43
2024/02/03 02:10:08;;;;;;;1.45;0.47;;;;;;;-4.21;69.55;97764.94;5005312;28;20049;-42
2024/02/03 02:12:35;;;;;;;4.80;0.90;;;;;;;-3.85;70.05;97828.94;4993840;28;20046;-43
2024/02/03 02:15:02;;;;;;;0.98;0.35;;;;;;;-3.88;70.13;97823.06;4988835;28;20046;-42
2024/02/03 02:17:36;;;;;;;4.75;1.20;;;;;;;-3.93;70.12;97820.56;4989443;28;20132;-42
2024/02/03 02:20:21;;;;;;;0.57;0.40;;;;;;;-4.33;70.53;97751.47;5004031;28;20057;-42
2024/02/03 02:22:47;;;;;;;1.35;0.40;;;;;;;-4.09;70.49;97780.91;4988722;28;20041;-42
2024/02/03 02:25:13;;;;;;;0.55;0.30;;;;;;;-3.90;70.70;97818.00;5006730;28;20045;-42
2024/02/03 02:27:39;;;;;;;2.53;0.70;;;;;;;-3.93;70.70;97829.88;5002003;28;20044;-43
2024/02/03 02:30:06;;;;;;;3.67;0.65;;;;;;;-3.92;71.39;97823.91;4985634;28;20042;-43
2024/02/03 02:32:31;;;;;;;1.55;0.47;;;;;;;-3.92;71.07;97822.22;4985400;28;20105;-43
2024/02/03 02:34:57;;;;;;;1.88;0.50;;;;;;;-4.26;71.29;97772.56;4974863;28;20541;-43
2024/02/03 02:37:23;;;;;;;1.23;0.47;;;;;;;-4.43;71.52;97746.47;4952249;28;20073;-43
2024/02/03 02:39:49;;;;;;;0.80;0.43;;;;;;;-4.23;71.67;97767.47;5003986;28;20157;-44
2024/02/03 02:42:15;;;;;;;2.88;1.02;;;;;;;-4.01;71.68;97814.69;5005899;28;20175;-44
2024/02/03 02:44:41;;;;;;;0.55;0.35;;;;;;;-4.38;71.47;97754.88;5003825;28;20041;-43
2024/02/03 02:47:07;;;;;;;4.13;0.75;;;;;;;-4.06;72.25;97807.94;4988363;28;20064;-42
2024/02/03 02:49:33;;;;;;;1.50;0.60;;;;;;;-4.03;71.87;97813.03;5003854;28;20088;-43
2024/02/03 02:51:59;;;;;;;4.38;0.80;;;;;;;-4.00;71.97;97806.22;5005791;28;20069;-42
2024/02/03 02:54:25;;;;;;;5.50;0.50;;;;;;;-4.02;72.09;97804.53;5006559;28;20183;-42
2024/02/03 02:56:51;;;;;;;1.55;0.50;;;;;;;-4.06;72.32;97805.41;4973031;28;21067;-41
2024/02/03 02:59:17;;;;;;;3.13;0.68;;;;;;;-4.06;72.25;97787.66;5005301;28;20064;-44
2024/02/03 03:01:43;;;;;;;2.10;0.55;;;;;;;-4.07;72.44;97803.72;4989498;28;20506;-44
2024/02/03 03:04:09;;;;;;;2.40;1.15;;;;;;;-4.39;72.44;97746.44;4981806;28;20038;-42
2024/02/03 03:06:35;;;;;;;4.93;0.73;;;;;;;-4.13;73.20;97794.47;4968291;28;20530;-44
2024/02/03 03:09:01;;;;;;;1.25;0.55;;;;;;;-4.12;72.79;97792.75;4987588;28;20054;-42
2024/02/03 03:11:27;;;;;;;2.63;0.30;;;;;;;-4.38;72.95;97750.66;5002091;28;20525;-42
2024/02/03 03:13:52;;;;;;;1.85;0.55;;;;;;;-4.14;72.65;97794.50;5009517;28;20042;-42
2024/02/03 03:16:18;;;;;;;3.03;0.52;;;;;;;-4.34;72.85;97756.53;5008260;28;20038;-44
2024/02/03 03:18:44;;;;;;;2.45;0.70;;;;;;;-4.12;73.14;97792.75;5006777;28;20042;-43
2024/02/03 03:21:11;;;;;;;0.40;0.30;;;;;;;-4.05;73.25;97794.41;5007971;28;20050;-44
2024/02/03 03:23:37;;;;;;;2.58;0.82;;;;;;;-4.02;73.39;97792.69;5008046;28;20148;-43
2024/02/03 03:26:03;;;;;;;2.85;0.80;;;;;;;-4.26;73.35;97744.69;5008085;28;20044;-42
2024/02/03 03:28:29;;;;;;;3.33;0.50;;;;;;;-4.04;73.49;97788.50;5008082;28;20873;-44
2024/02/03 03:30:55;;;;;;;4.47;0.90;;;;;;;-4.09;73.27;97762.31;5009276;28;20045;-44
2024/02/03 03:33:21;;;;;;;6.97;0.80;;;;;;;-3.99;73.06;97779.16;5008848;28;20042;-42
2024/02/03 03:35:47;;;;;;;0.25;0.22;;;;;;;-4.01;73.08;97781.69;4973759;28;20056;-41
2024/02/03 03:38:13;;;;;;;2.92;0.60;;;;;;;-4.11;73.37;97782.63;5009105;28;20518;-42
2024/02/03 03:40:39;;;;;;;3.55;0.38;;;;;;;-4.15;73.35;97777.56;5006650;28;20069;-43
2024/02/03 03:43:05;;;;;;;4.60;0.55;;;;;;;-4.23;74.23;97772.53;5009156;28;20137;-43
2024/02/03 03:45:31;;;;;;;3.15;0.40;;;;;;;-4.55;73.80;97738.97;4991718;28;20045;-42
2024/02/03 03:47:57;;;;;;;2.42;0.38;;;;;;;-4.37;74.35;97774.34;5007403;28;20038;-44
2024/02/03 03:50:23;;;;;;;1.50;0.43;;;;;;;-4.42;74.64;97781.13;5006344;28;20425;-43
2024/02/03 03:52:49;;;;;;;2.03;0.40;;;;;;;-4.89;74.79;97710.41;4991998;28;20042;-42
2024/02/03 03:55:16;;;;;;;3.75;0.50;;;;;;;-4.52;74.55;97771.88;5007326;28;20253;-44
2024/02/03 03:57:42;;;;;;;3.05;0.63;;;;;;;-4.47;75.24;97775.25;5007687;28;20034;-44
2024/02/03 04:00:10;;;;;;;0.63;0.40;;;;;;;-4.64;74.95;97754.19;5008469;28;20041;-42
2024/02/03 04:02:39;;;;;;;1.17;0.57;;;;;;;-4.72;75.20;97724.69;5002791;28;20041;-43
2024/02/03 04:05:06;;;;;;;2.15;0.57;;;;;;;-4.47;75.10;97771.00;5008233;28;20064;-41
2024/02/03 04:07:32;;;;;;;2.97;0.50;;;;;;;-4.52;75.13;97770.19;5007126;28;20629;-42
2024/02/03 04:09:58;;;;;;;2.58;0.70;;;;;;;-4.81;75.46;97722.19;4988611;28;20182;-42
2024/02/03 04:12:24;;;;;;;0.40;0.40;;;;;;;-4.62;75.60;97766.03;4997583;28;20072;-42
2024/02/03 04:14:51;;;;;;;0.38;0.30;;;;;;;-4.60;75.97;97764.31;5007486;28;20056;-42
2024/02/03 04:17:18;;;;;;;1.08;0.30;;;;;;;-4.85;75.95;97724.75;5008353;28;20052;-43
2024/02/03 04:19:44;;;;;;;3.70;0.45;;;;;;;-4.74;76.15;97753.41;5004951;28;20084;-41
2024/02/03 04:22:12;;;;;;;8.95;0.65;;;;;;;-5.01;76.38;97723.13;5006662;28;20080;-43
2024/02/03 04:24:39;;;;;;;0.85;0.20;;;;;;;-4.83;76.50;97751.78;5006896;28;20034;-43
2024/02/03 04:27:06;;;;;;;0.35;0.35;;;;;;;-4.86;77.33;97753.47;5001538;28;20105;-45
2024/02/03 04:29:32;;;;;;;2.03;0.80;;;;;;;-4.91;77.55;97757.69;4970665;28;20053;-42
2024/02/03 04:31:58;;;;;;;4.50;0.60;;;;;;;-4.89;77.93;97740.81;4987155;28;20570;-43
2024/02/03 04:34:24;;;;;;;1.55;0.45;;;;;;;-4.90;77.62;97746.72;4990960;28;20096;-42
2024/02/03 04:36:49;;;;;;;1.08;0.43;;;;;;;-5.07;77.69;97711.34;5007835;28;20048;-48
2024/02/03 04:39:15;;;;;;;2.30;0.47;;;;;;;-4.89;78.37;97743.34;5008174;28;20505;-44
2024/02/03 04:41:41;;;;;;;0.65;0.40;;;;;;;-4.92;78.66;97751.78;5005052;28;20550;-44
2024/02/03 04:44:07;;;;;;;1.45;0.57;;;;;;;-5.13;78.15;97712.19;5001012;28;20048;-42
2024/02/03 04:46:33;;;;;;;2.15;0.82;;;;;;;-5.23;78.17;97697.03;4988041;28;20181;-42
2024/02/03 04:48:59;;;;;;;1.88;0.55;;;;;;;-5.05;78.43;97708.81;4970482;28;20038;-44
2024/02/03 04:51:25;;;;;;;1.08;0.43;;;;;;;-4.74;78.57;97753.41;5005981;28;20048;-44
2024/02/03 04:53:51;;;;;;;3.45;0.90;;;;;;;-4.85;77.83;97722.22;5007335;28;20050;-43
2024/02/03 04:56:17;;;;;;;8.02;0.80;;;;;;;-4.57;78.40;97748.25;5007411;28;20044;-42
2024/02/03 04:58:42;;;;;;;2.22;1.20;;;;;;;-4.63;78.10;97740.69;5006785;28;20074;-42
2024/02/03 05:01:08;;;;;;;1.42;0.65;;;;;;;-4.53;77.96;97753.28;4994980;28;20058;-42
2024/02/03 05:03:37;;;;;;;1.23;0.80;;;;;;;-4.43;77.76;97751.53;4987980;28;20038;-44
2024/02/03 05:06:04;;;;;;;3.92;1.02;;;;;;;-4.50;76.98;97750.72;4999063;28;20059;-42
2024/02/03 05:08:31;;;;;;;9.23;1.30;;;;;;;-4.45;77.40;97751.53;5004565;28;20042;-49
2024/02/03 05:10:58;;;;;;;2.50;0.90;;;;;;;-4.41;77.69;97754.91;5007520;28;20038;-41
2024/02/03 05:13:25;;;;;;;2.60;1.02;;;;;;;-4.41;77.53;97754.91;4990380;28;20076;-42
2024/02/03 05:15:51;;;;;;;2.15;1.05;;;;;;;-4.37;77.79;97754.88;4972354;28;20052;-43
2024/02/03 05:18:17;;;;;;;2.83;1.48;;;;;;;-4.62;77.58;97706.88;4997746;28;20133;-44
2024/02/03 05:20:43;;;;;;;5.57;1.85;;;;;;;-4.68;78.33;97710.28;4969178;28;20034;-42
2024/02/03 05:23:09;;;;;;;6.13;1.40;;;;;;;-4.48;78.26;97756.66;4987936;28;20046;-44
2024/02/03 05:25:35;;;;;;;1.17;0.95;;;;;;;-4.48;78.70;97741.44;4986537;28;20056;-43
2024/02/03 05:28:02;;;;;;;3.88;1.15;;;;;;;-4.59;79.78;97753.31;4997751;28;20143;-43
2024/02/03 05:30:28;;;;;;;8.68;1.35;;;;;;;-4.62;80.54;97733.06;5005293;28;20042;-44
2024/02/03 05:32:54;;;;;;;0.50;0.35;;;;;;;-4.63;80.93;97739.00;5006509;28;20311;-43
2024/02/03 05:35:19;;;;;;;6.95;1.77;;;;;;;-4.65;81.42;97739.84;4968428;28;20434;-43
2024/02/03 05:37:45;;;;;;;5.28;1.40;;;;;;;-4.66;81.46;97735.66;5005000;28;20392;-43
2024/02/03 05:40:11;;;;;;;3.65;1.23;;;;;;;-4.53;81.41;97749.91;5007063;28;20049;-43
2024/02/03 05:42:38;;;;;;;3.42;1.17;;;;;;;-4.77;82.11;97711.19;5007354;28;20140;-43
2024/02/03 05:45:04;;;;;;;2.50;1.48;;;;;;;-4.52;81.81;97749.06;4953577;28;20038;-42
2024/02/03 05:47:32;;;;;;;3.50;1.33;;;;;;;-4.51;82.12;97748.22;5002573;28;20108;-43
2024/02/03 05:49:58;;;;;;;4.22;1.58;;;;;;;-4.71;82.16;97723.00;4993955;28;20046;-43
2024/02/03 05:52:24;;;;;;;1.85;1.05;;;;;;;-4.56;82.04;97743.19;5005591;28;20072;-44
2024/02/03 05:54:50;;;;;;;4.00;1.20;;;;;;;-4.54;82.85;97748.22;5006786;28;20042;-43
2024/02/03 05:57:17;;;;;;;3.33;1.08;;;;;;;-4.53;82.83;97748.22;5005669;28;20103;-45
2024/02/03 05:59:43;;;;;;;1.45;0.90;;;;;;;-4.51;83.03;97740.63;5004506;28;20045;-42
2024/02/03 06:02:10;;;;;;;2.90;1.15;;;;;;;-4.61;83.20;97733.91;5002994;28;20042;-44
2024/02/03 06:04:36;;;;;;;1.73;0.73;;;;;;;-4.42;83.25;97738.88;4987869;28;20049;-44
2024/02/03 06:07:02;;;;;;;2.55;1.20;;;;;;;-4.40;83.08;97734.63;4995406;28;20458;-44
2024/02/03 06:09:28;;;;;;;1.20;0.60;;;;;;;-4.36;83.05;97731.22;4978826;28;20092;-45
2024/02/03 06:11:54;;;;;;;1.65;0.73;;;;;;;-4.33;83.28;97737.94;5005263;28;20299;-44
2024/02/03 06:14:20;;;;;;;6.85;1.35;;;;;;;-4.61;83.25;97690.81;5006585;28;20037;-43
2024/02/03 06:16:46;;;;;;;3.70;0.60;;;;;;;-4.31;83.35;97741.31;5004653;28;20038;-42
2024/02/03 06:22:03;;;;;;;2.45;1.00;;;;;;;-4.05;82.75;97729.28;4987009;28;20068;-44
2024/02/03 06:24:29;;;;;;;2.22;1.15;;;;;;;-3.99;82.42;97728.41;4984276;28;20112;-42
2024/02/03 06:26:54;;;;;;;3.58;1.00;;;;;;;-4.00;82.25;97729.25;4993427;28;20163;-44
2024/02/03 06:29:20;;;;;;;1.75;1.10;;;;;;;-3.82;82.16;97726.53;4981756;28;20072;-43
2024/02/03 06:31:46;;;;;;;4.57;0.73;;;;;;;-3.80;81.76;97724.00;5000432;28;20038;-42
2024/02/03 06:34:12;;;;;;;1.08;0.95;;;;;;;-3.95;81.83;97689.44;4994279;28;20076;-43
2024/02/03 06:36:40;;;;;;;1.58;0.98;;;;;;;-3.70;81.28;97728.97;4978626;28;20049;-43
2024/02/03 06:39:08;;;;;;;5.07;0.88;;;;;;;-3.71;81.75;97723.91;4952593;28;20042;-42
2024/02/03 06:41:35;;;;;;;1.75;0.85;;;;;;;-3.61;81.26;97718.72;4984619;28;20042;-43
2024/02/03 06:44:01;;;;;;;3.85;1.60;;;;;;;-3.58;81.24;97717.88;5001146;28;20096;-42
2024/02/03 06:46:27;;;;;;;1.80;1.38;;;;;;;-3.40;81.29;97719.38;4987418;28;20125;-43
2024/02/03 06:48:53;;;;;;;2.58;1.20;;;;;;;-3.34;80.40;97714.22;5003939;28;20207;-43
2024/02/03 06:51:19;;;;;;;2.08;1.20;;;;;;;-3.43;80.30;97680.44;5008622;28;20096;-43
2024/02/03 06:53:44;;;;;;;5.30;0.82;;;;;;;-3.37;79.55;97715.09;5008262;28;20049;-52
2024/02/03 06:56:10;;;;;;;3.00;0.80;;;;;;;-3.25;79.60;97709.06;5008255;28;20038;-42
2024/02/03 06:58:36;;;;;;;1.52;0.80;;;;;;;-3.18;79.44;97711.50;5006808;28;20136;-43
2024/02/03 07:01:02;;;;;;;3.30;1.00;;;;;;;-3.16;79.33;97703.84;5003024;28;20080;-44
2024/02/03 07:03:28;;;;;;;1.42;1.00;;;;;;;-3.12;79.23;97708.88;5009006;28;20077;-44
2024/02/03 07:05:54;;;;;;;8.05;1.50;;;;;;;-3.32;78.47;97667.63;5001137;28;20058;-45
2024/02/03 07:08:20;;;;;;;3.13;0.70;;;;;;;-2.97;78.47;97714.63;4998205;28;20056;-43
2024/02/03 07:10:46;;;;;;;1.77;1.08;;;;;;;-2.91;78.50;97697.59;4990077;28;20068;-41
2024/02/03 07:13:12;;;;;;;2.08;1.20;;;;;;;-3.11;77.59;97643.66;4965337;28;20058;-45
2024/02/03 07:15:38;;;;;;;1.80;0.65;;;;;;;-2.94;77.47;97662.06;4990133;28;20603;-43
2024/02/03 07:18:04;;;;;;;1.20;0.70;;;;;;;-2.90;77.06;97665.41;4973209;28;20038;-44
2024/02/03 07:20:29;;;;;;;2.08;0.85;;;;;;;-2.69;76.81;97698.16;5006655;28;20041;-45
2024/02/03 07:22:56;;;;;;;1.58;0.80;;;;;;;-2.82;76.83;97646.63;5008023;28;20050;-45
2024/02/03 07:25:22;;;;;;;0.90;0.43;;;;;;;-2.41;76.64;97685.91;4998275;28;20054;-46
2024/02/03 07:27:48;;;;;;;1.10;0.80;;;;;;;-2.34;75.89;97690.00;4994721;28;20038;-51
2024/02/03 07:30:14;;;;;;;0.57;0.57;;;;;;;-2.24;75.45;97684.75;4969129;28;20062;-43
2024/02/03 07:32:40;;;;;;;2.35;0.80;;;;;;;-2.23;74.85;97686.44;4990899;28;20034;-44
2024/02/03 07:35:06;;;;;;;4.03;1.50;;;;;;;-2.13;74.88;97677.78;5000367;28;20042;-43
2024/02/03 07:37:32;;;;;;;3.85;1.00;;;;;;;-2.06;74.54;97680.25;5008099;28;20506;-43
2024/02/03 07:39:58;;;;;;;4.82;1.00;;;;;;;-2.03;74.12;97680.19;4982153;28;20046;-44
2024/02/03 07:42:24;;;;;;;3.08;0.98;;;;;;;-1.96;73.60;97687.72;4976476;28;20521;-44
2024/02/03 07:44:50;;;;;;;1.42;1.00;;;;;;;-2.13;73.17;97667.63;4989326;28;20046;-44
2024/02/03 07:47:16;;;;;;;2.15;0.68;;;;;;;-2.12;72.76;97686.28;4989043;28;20057;-43
2024/02/03 07:49:42;;;;;;;3.45;0.82;;;;;;;-2.26;73.03;97655.13;4977247;28;20042;-43
2024/02/03 07:52:08;;;;;;;2.28;0.88;;;;;;;-2.10;72.99;97653.16;4996233;28;20141;-44
2024/02/03 07:54:33;;;;;;;1.95;0.68;;;;;;;-1.64;72.68;97673.56;5001391;28;20057;-43
2024/02/03 07:57:00;;;;;;;0.60;0.50;;;;;;;-1.79;71.11;97661.97;4998845;28;20043;-42
2024/02/03 07:59:29;;;;;;;1.73;0.90;;;;;;;-1.97;71.04;97644.44;5000555;28;20038;-43
2024/02/03 08:01:55;;;;;;;2.95;0.95;;;;;;;-1.99;70.68;97623.28;5000239;28;20184;-42
2024/02/03 08:04:21;;;;;;;2.17;0.50;;;;;;;-1.68;69.72;97672.78;4983986;28;20100;-45
2024/02/03 08:06:47;;;;;;;2.78;1.08;;;;;;;-1.74;69.08;97671.19;4994304;28;20046;-47
2024/02/03 08:09:13;;;;;;;1.40;0.70;;;;;;;-1.63;69.45;97663.38;4996828;28;20038;-46
2024/02/03 08:11:39;;;;;;;0.50;0.30;;;;;;;-1.42;69.17;97673.16;4999587;28;20061;-42
2024/02/03 08:14:05;;;;;;;3.13;0.90;;;;;;;-1.43;68.30;97665.53;4995079;28;20065;-43
2024/02/03 08:16:31;;;;;;;1.17;0.60;;;;;;;-1.20;68.32;97663.34;4998669;28;20041;-42
2024/02/03 08:18:57;;;;;;;3.95;1.10;;;;;;;-1.25;67.76;97636.28;5000745;28;20497;-44
2024/02/03 08:21:23;;;;;;;3.95;1.02;;;;;;;-1.05;67.35;97647.78;4993744;28;20055;-43
2024/02/03 08:23:49;;;;;;;4.15;1.13;;;;;;;-1.05;66.57;97650.31;4999678;28;20033;-44
2024/02/03 08:26:15;;;;;;;5.10;0.70;;;;;;;-1.01;66.79;97648.53;4978688;28;20042;-41
2024/02/03 08:28:41;;;;;;;1.67;0.95;;;;;;;-1.07;66.57;97644.41;4999054;28;20041;-43
2024/02/03 08:31:07;;;;;;;3.17;0.90;;;;;;;-1.06;66.65;97651.19;4979438;28;20042;-43
2024/02/03 08:33:33;;;;;;;4.43;1.38;;;;;;;-1.16;66.47;97651.41;4982923;28;20073;-43
2024/02/03 08:35:59;;;;;;;4.18;0.98;;;;;;;-1.06;66.80;97641.00;4961711;28;20046;-43
2024/02/03 08:38:25;;;;;;;1.33;0.82;;;;;;;-1.04;66.37;97625.63;5004175;28;20116;-42
2024/02/03 08:40:51;;;;;;;2.35;1.08;;;;;;;-1.07;65.94;97600.22;4989047;28;20102;-44
2024/02/03 08:43:16;;;;;;;3.72;0.90;;;;;;;-1.18;65.66;97579.22;4996109;28;20067;-41
2024/02/03 08:45:42;;;;;;;1.27;0.60;;;;;;;-1.00;65.51;97617.06;4990126;28;20091;-43
2024/02/03 08:48:09;;;;;;;2.60;0.65;;;;;;;-0.95;65.92;97626.31;4945240;28;1413237;-41
2024/02/03 08:50:34;;;;;;;4.03;1.15;;;;;;;-0.94;65.37;97616.91;4991821;28;20065;-42
2024/02/03 08:53:01;;;;;;;2.00;0.68;;;;;;;-0.91;65.63;97609.22;4983001;28;20521;-43
2024/02/03 08:55:28;;;;;;;1.40;0.65;;;;;;;-0.72;65.59;97599.41;5001761;28;20049;-43
2024/02/03 08:57:55;;;;;;;2.47;1.00;;;;;;;-0.93;65.29;97521.69;4998529;28;20187;-44
2024/02/03 09:00:21;;;;;;;1.65;0.65;;;;;;;-0.25;64.67;97588.06;4997848;28;20058;-44
2024/02/03 09:02:47;;;;;;;2.03;0.90;;;;;;;-0.31;63.91;97549.94;4988693;28;20100;-44
2024/02/03 09:05:13;;;;;;;4.57;1.10;;;;;;;0.29;63.65;97590.91;5006478;28;20458;-43
2024/02/03 09:07:39;;;;;;;2.25;0.80;;;;;;;0.81;63.52;97578.34;4976835;28;20060;-42
2024/02/03 09:10:05;;;;;;;2.53;1.10;;;;;;;0.86;62.68;97575.66;4998962;28;20049;-41
2024/02/03 09:12:32;;;;;;;4.82;1.20;;;;;;;0.78;62.13;97569.94;4992620;28;20037;-43
2024/02/03 09:14:58;;;;;;;2.92;1.00;;;;;;;0.83;62.18;97575.75;4981191;28;20046;-44
2024/02/03 09:17:24;;;;;;;4.38;1.10;;;;;;;0.73;62.15;97571.78;4953844;28;20088;-43
2024/02/03 09:19:50;;;;;;;2.63;1.10;;;;;;;0.73;62.40;97564.13;4977136;28;20129;-41
2024/02/03 09:22:16;;;;;;;4.38;1.10;;;;;;;1.00;61.97;97555.59;4992813;28;20045;-42
2024/02/03 09:24:43;;;;;;;5.07;1.50;;;;;;;0.88;61.52;97556.00;4985345;28;20054;-42
2024/02/03 09:27:09;;;;;;;5.38;1.23;;;;;;;0.55;61.71;97526.28;4976661;28;20826;-43
2024/02/03 09:29:41;;;;;;;3.08;1.08;;;;;;;0.73;62.06;97549.59;4988231;28;20156;-42
2024/02/03 09:32:08;;;;;;;4.07;1.40;;;;;;;0.53;61.73;97490.53;4986641;28;20092;-46
2024/02/03 09:34:35;;;;;;;4.35;1.80;;;;;;;0.92;61.46;97554.16;5002628;28;20045;-42
2024/02/03 09:37:01;;;;;;;2.58;1.20;;;;;;;1.00;61.14;97537.69;4992505;28;20224;-43
2024/02/03 09:39:26;;;;;;;7.15;1.48;;;;;;;1.22;61.01;97540.44;4980080;28;20129;-42
2024/02/03 09:41:54;;;;;;;3.78;1.45;;;;;;;1.61;60.35;97530.66;4996802;28;20041;-43
2024/02/03 09:44:21;;;;;;;5.15;1.13;;;;;;;2.06;58.96;97534.19;4995804;28;20050;-42
2024/02/03 09:46:48;;;;;;;4.35;1.95;;;;;;;2.12;58.88;97520.34;5005694;28;20045;-43
2024/02/03 09:49:14;;;;;;;6.47;1.50;;;;;;;2.26;57.97;97528.34;4998120;28;20100;-44
2024/02/03 09:51:40;;;;;;;5.10;1.30;;;;;;;2.47;57.85;97514.75;4993692;28;20050;-42
2024/02/03 09:54:06;;;;;;;6.15;1.45;;;;;;;2.52;57.69;97482.09;5003127;28;20591;-46
2024/02/03 09:56:32;;;;;;;4.40;1.50;;;;;;;2.81;57.56;97459.63;4988918;28;20426;-46
2024/02/03 09:58:59;;;;;;;6.50;2.03;;;;;;;3.47;57.35;97486.91;4993605;28;20050;-49
2024/02/03 10:01:25;;;;;;;7.70;1.90;;;;;;;4.30;56.82;97485.03;4979665;28;20044;-47
2024/02/03 10:03:58;;;;;;;4.80;1.20;;;;;;;4.47;54.82;97461.13;4962126;28;20033;-45
2024/02/03 10:06:24;;;;;;;6.28;1.90;;;;;;;4.18;55.24;97483.00;4967815;28;20064;-46
2024/02/03 10:08:53;;;;;;;2.38;1.27;;;;;;;4.22;55.24;97484.53;4987586;28;20609;-43
2024/02/03 10:11:20;;;;;;;4.25;1.60;;;;;;;3.52;54.25;97476.44;4976234;28;20045;-46
2024/02/03 10:14:02;;;;;;;4.10;1.20;;;;;;;2.77;54.87;97407.63;4986720;28;20069;-46
2024/02/03 10:16:28;;;;;;;5.85;2.22;;;;;;;3.06;55.09;97462.06;4969426;28;20790;-46
2024/02/03 10:18:54;;;;;;;4.93;1.80;;;;;;;2.85;54.95;97436.38;4991147;28;20053;-49
2024/02/03 10:21:20;;;;;;;3.20;1.50;;;;;;;2.84;55.09;97451.81;4975306;28;20049;-47
2024/02/03 10:23:52;;;;;;;3.28;1.60;;;;;;;2.98;55.27;97449.56;4994863;28;20042;-46
2024/02/03 10:26:18;;;;;;;4.25;2.08;;;;;;;2.86;55.00;97443.16;5009877;28;20774;-46
2024/02/03 10:28:44;;;;;;;6.38;1.48;;;;;;;2.76;54.85;97441.03;4990855;28;20517;-39
2024/02/03 10:31:14;;;;;;;2.85;1.30;;;;;;;2.58;55.28;97442.56;4998786;28;20037;-43
2024/02/03 10:33:40;;;;;;;6.07;1.20;;;;;;;2.45;55.06;97442.22;4983513;28;20789;-46
2024/02/03 10:36:06;;;;;;;6.65;1.50;;;;;;;2.47;55.11;97430.16;5005632;28;20076;-48
2024/02/03 10:38:32;;;;;;;5.00;1.52;;;;;;;2.55;55.02;97427.31;4988494;28;20052;-48
2024/02/03 10:40:59;;;;;;;1.98;1.25;;;;;;;2.79;54.78;97422.94;4988025;28;20681;-44
2024/02/03 10:43:25;;;;;;;4.45;1.40;;;;;;;3.02;54.25;97411.75;4969841;28;20038;-46
2024/02/03 10:45:53;;;;;;;6.65;1.88;;;;;;;3.29;54.35;97420.91;4990745;28;20046;-44
2024/02/03 10:48:20;;;;;;;6.50;1.90;;;;;;;3.48;54.11;97385.84;4970780;28;20050;-47
2024/02/03 10:50:49;;;;;;;4.25;1.92;;;;;;;3.98;53.58;97396.47;4986836;28;20081;-45
2024/02/03 10:53:20;;;;;;;8.40;2.67;;;;;;;4.14;53.27;97396.59;4984614;28;20045;-45
2024/02/03 10:55:55;;;;;;;6.07;1.55;;;;;;;4.25;52.50;97402.94;4984821;28;20073;-46
2024/02/03 10:58:27;;;;;;;6.05;2.28;;;;;;;5.69;51.30;97397.63;4977022;28;20038;-43
2024/02/03 11:00:53;;;;;;;7.45;2.28;;;;;;;6.89;49.51;97398.06;4999833;28;20426;-46
2024/02/03 11:03:21;;;;;;;13.95;3.88;;;;;;;7.59;48.19;97393.09;4990781;28;20038;-44
2024/02/03 11:05:47;;;;;;;5.70;1.90;;;;;;;7.88;47.33;97399.13;4972513;28;20112;-44
2024/02/03 11:08:14;;;;;;;6.55;2.20;;;;;;;7.66;46.52;97394.41;4992557;28;20042;-44
2024/02/03 11:10:41;;;;;;;7.53;1.90;;;;;;;7.72;46.23;97390.63;4999873;28;20045;-43
2024/02/03 11:13:23;;;;;;;3.38;1.38;;;;;;;7.42;45.35;97354.50;4992375;28;20031;-45
2024/02/03 11:15:59;;;;;;;6.25;1.70;;;;;;;7.75;44.77;97368.91;4992226;28;20042;-44
2024/02/03 11:18:26;;;;;;;5.90;1.98;;;;;;;8.26;44.83;97383.88;4994477;28;20052;-44
2024/02/03 11:21:07;;;;;;;3.88;1.63;;;;;;;8.75;43.29;97370.44;4953690;28;20045;-48
2024/02/03 11:23:34;;;;;;;7.75;1.80;;;;;;;9.45;42.15;97347.69;4952225;28;20034;-45
2024/02/03 11:26:00;;;;;;;4.90;1.90;;;;;;;9.32;41.79;97361.47;4986035;28;20068;-43
2024/02/03 11:28:34;;;;;;;4.65;2.00;;;;;;;9.47;41.87;97356.22;4984458;28;20042;-44
2024/02/03 11:31:02;;;;;;;3.55;1.92;;;;;;;9.54;41.26;97357.44;4971122;28;20136;-47
2024/02/03 11:33:30;;;;;;;6.82;2.30;;;;;;;9.49;41.48;97354.34;4980075;28;20081;-44
2024/02/03 11:36:00;;;;;;;5.43;2.03;;;;;;;9.30;40.75;97331.41;5003915;28;20124;-45